Time;durP1;ratioP1;P1;durP2;ratioP2;P2;SDS_P1;SDS_P2;PMS_P1;PMS_P2;Temp;Humidity;BMP_temperature;BMP_pressure;BME280_temperature;BME280_humidity;BME280_pressure;Samples;Min_cycle;Max_cycle;Signal;HPM_P1;HPM_P2
2021/10/27 00:03:31;;;;;;;;;;;19.40;41.00;;;;;;8233875;28;19996;-50
2021/10/27 00:07:32;;;;;;;;;;;19.40;41.00;;;;;;8233206;28;19914;-51
2021/10/27 00:11:33;;;;;;;;;;;19.40;41.00;;;;;;8233776;28;20379;-53
2021/10/27 00:15:33;;;;;;;;;;;19.40;41.00;;;;;;8233550;28;20439;-53
2021/10/27 00:19:34;;;;;;;;;;;19.40;41.00;;;;;;8233468;28;19914;-50
2021/10/27 00:23:34;;;;;;;;;;;19.40;41.00;;;;;;8232735;28;19914;-51
2021/10/27 00:27:35;;;;;;;;;;;19.40;41.00;;;;;;8233390;28;20336;-54
2021/10/27 00:31:35;;;;;;;;;;;19.40;41.00;;;;;;8233338;28;19914;-51
2021/10/27 00:35:36;;;;;;;;;;;19.40;41.00;;;;;;8232673;28;19922;-53
2021/10/27 00:39:37;;;;;;;;;;;19.40;41.00;;;;;;8232930;28;19940;-51
2021/10/27 00:43:38;;;;;;;;;;;19.30;41.00;;;;;;8233166;28;19938;-53
2021/10/27 00:47:38;;;;;;;;;;;19.30;41.00;;;;;;8232681;28;19921;-52
2021/10/27 00:51:39;;;;;;;;;;;19.30;40.90;;;;;;8233146;28;20001;-53
2021/10/27 00:55:39;;;;;;;;;;;19.30;41.00;;;;;;8232960;28;19964;-53
2021/10/27 00:59:41;;;;;;;;;;;19.30;40.90;;;;;;8232281;28;20375;-54
2021/10/27 01:03:42;;;;;;;;;;;19.30;40.90;;;;;;8232947;28;19918;-53
2021/10/27 01:07:43;;;;;;;;;;;19.30;41.00;;;;;;8231777;28;19966;-52
2021/10/27 01:11:44;;;;;;;;;;;19.30;40.90;;;;;;8232490;28;19914;-53
2021/10/27 01:15:45;;;;;;;;;;;19.30;40.90;;;;;;8232577;28;19934;-53
2021/10/27 01:19:46;;;;;;;;;;;19.30;40.90;;;;;;8234108;28;20298;-53
2021/10/27 01:23:46;;;;;;;;;;;19.30;40.90;;;;;;8237895;28;20364;-53
2021/10/27 01:27:47;;;;;;;;;;;19.30;40.90;;;;;;8238041;28;19941;-51
2021/10/27 01:31:48;;;;;;;;;;;19.30;40.90;;;;;;8238029;28;20005;-52
2021/10/27 01:35:48;;;;;;;;;;;19.30;40.90;;;;;;8237283;28;19945;-53
2021/10/27 01:39:48;;;;;;;;;;;19.30;40.90;;;;;;8237702;28;19969;-52
2021/10/27 01:43:53;;;;;;;;;;;19.30;40.90;;;;;;8237695;28;19968;-53
2021/10/27 01:47:55;;;;;;;;;;;19.20;40.80;;;;;;8237053;28;20301;-52
2021/10/27 01:51:55;;;;;;;;;;;19.20;40.80;;;;;;8237625;28;20287;-51
2021/10/27 01:55:56;;;;;;;;;;;19.20;40.80;;;;;;8236982;28;19922;-52
2021/10/27 01:59:56;;;;;;;;;;;19.20;40.80;;;;;;8236611;28;19997;-53
2021/10/27 02:03:57;;;;;;;;;;;19.20;40.80;;;;;;8237218;28;19916;-50
2021/10/27 02:07:58;;;;;;;;;;;19.20;40.80;;;;;;8236948;28;19917;-51
2021/10/27 02:11:58;;;;;;;;;;;19.20;40.80;;;;;;8236585;28;19921;-53
2021/10/27 02:15:58;;;;;;;;;;;19.20;40.80;;;;;;8236855;28;19922;-52
2021/10/27 02:19:59;;;;;;;;;;;19.20;40.80;;;;;;8236431;28;19956;-52
2021/10/27 02:24:00;;;;;;;;;;;19.20;40.80;;;;;;8235782;28;19921;-51
2021/10/27 02:28:00;;;;;;;;;;;19.20;40.80;;;;;;8236502;28;19918;-50
2021/10/27 02:32:01;;;;;;;;;;;19.20;40.70;;;;;;8235860;28;19918;-53
2021/10/27 02:36:01;;;;;;;;;;;19.20;40.80;;;;;;8234877;28;19945;-52
2021/10/27 02:40:02;;;;;;;;;;;19.10;40.70;;;;;;8236055;28;19950;-50
2021/10/27 02:44:03;;;;;;;;;;;19.10;40.70;;;;;;8235720;28;19937;-50
2021/10/27 02:48:04;;;;;;;;;;;19.10;40.70;;;;;;8235321;28;19950;-52
2021/10/27 02:52:04;;;;;;;;;;;19.10;40.70;;;;;;8235691;28;19914;-53
2021/10/27 02:56:05;;;;;;;;;;;19.10;40.70;;;;;;8235448;28;19926;-51
2021/10/27 03:00:06;;;;;;;;;;;19.10;40.70;;;;;;8234800;28;19921;-52
2021/10/27 03:04:07;;;;;;;;;;;19.10;40.70;;;;;;8234908;28;19921;-49
2021/10/27 03:08:08;;;;;;;;;;;19.10;40.60;;;;;;8234932;28;19910;-50
2021/10/27 03:12:08;;;;;;;;;;;19.10;40.60;;;;;;8234833;28;19914;-50
2021/10/27 03:16:09;;;;;;;;;;;19.10;40.60;;;;;;8234837;28;19957;-50
2021/10/27 03:20:09;;;;;;;;;;;19.10;40.70;;;;;;8234168;28;19914;-51
2021/10/27 03:24:10;;;;;;;;;;;19.10;41.30;;;;;;8234386;28;20283;-53
2021/10/27 03:28:10;;;;;;;;;;;19.10;40.70;;;;;;8234420;28;19964;-50
2021/10/27 03:32:11;;;;;;;;;;;19.10;40.60;;;;;;8233768;28;20025;-53
2021/10/27 03:36:12;;;;;;;;;;;19.20;40.60;;;;;;8234205;28;20338;-52
2021/10/27 03:40:13;;;;;;;;;;;19.20;40.60;;;;;;8234362;28;19920;-53
2021/10/27 03:44:13;;;;;;;;;;;19.20;40.60;;;;;;8232786;28;19913;-50
2021/10/27 03:48:14;;;;;;;;;;;19.20;40.60;;;;;;8234051;28;19910;-50
2021/10/27 03:52:15;;;;;;;;;;;19.30;40.60;;;;;;8233968;28;19914;-51
2021/10/27 03:56:15;;;;;;;;;;;19.30;40.60;;;;;;8233476;28;19930;-50
2021/10/27 04:00:16;;;;;;;;;;;19.30;40.60;;;;;;8233623;28;19914;-50
2021/10/27 04:04:16;;;;;;;;;;;19.30;40.60;;;;;;8232862;28;19958;-52
2021/10/27 04:08:17;;;;;;;;;;;19.30;40.50;;;;;;8233417;28;19910;-53
2021/10/27 04:12:18;;;;;;;;;;;19.30;40.60;;;;;;8233648;28;19914;-49
2021/10/27 04:16:18;;;;;;;;;;;19.30;40.60;;;;;;8233453;28;19922;-50
2021/10/27 04:20:19;;;;;;;;;;;19.30;40.60;;;;;;8232765;28;19921;-52
2021/10/27 04:24:19;;;;;;;;;;;19.30;40.50;;;;;;8233368;28;20282;-50
2021/10/27 04:28:20;;;;;;;;;;;19.30;40.40;;;;;;8233324;28;20363;-50
2021/10/27 04:32:20;;;;;;;;;;;19.30;40.40;;;;;;8232810;28;20356;-51
2021/10/27 04:36:21;;;;;;;;;;;19.30;40.30;;;;;;8232980;28;20398;-50
2021/10/27 04:40:21;;;;;;;;;;;19.30;40.30;;;;;;8232898;28;19933;-52
2021/10/27 04:44:22;;;;;;;;;;;19.30;40.30;;;;;;8232723;28;19921;-53
2021/10/27 04:48:22;;;;;;;;;;;19.30;40.30;;;;;;8233157;28;20387;-50
2021/10/27 04:52:23;;;;;;;;;;;19.20;40.30;;;;;;8232838;28;19917;-51
2021/10/27 04:56:23;;;;;;;;;;;19.20;40.30;;;;;;8238054;28;20379;-52
2021/10/27 05:00:24;;;;;;;;;;;19.20;40.40;;;;;;8238876;28;19921;-50
2021/10/27 05:04:24;;;;;;;;;;;19.20;40.30;;;;;;8239044;28;20306;-52
2021/10/27 05:08:25;;;;;;;;;;;19.20;40.30;;;;;;8238485;28;19914;-50
2021/10/27 05:12:26;;;;;;;;;;;19.20;40.30;;;;;;8238629;28;19921;-52
2021/10/27 05:16:26;;;;;;;;;;;19.20;40.30;;;;;;8238415;28;19922;-51
2021/10/27 05:20:27;;;;;;;;;;;19.20;40.50;;;;;;8238022;28;20005;-53
2021/10/27 05:24:27;;;;;;;;;;;19.20;40.50;;;;;;8238064;28;19914;-52
2021/10/27 05:28:28;;;;;;;;;;;19.20;40.50;;;;;;8238266;28;19921;-53
2021/10/27 05:32:28;;;;;;;;;;;19.30;40.60;;;;;;8237468;28;19921;-50
2021/10/27 05:36:29;;;;;;;;;;;19.30;40.50;;;;;;8238249;28;19922;-50
2021/10/27 05:40:30;;;;;;;;;;;19.30;40.40;;;;;;8237671;28;19914;-50
2021/10/27 05:44:30;;;;;;;;;;;19.30;40.30;;;;;;8237029;28;19914;-52
2021/10/27 05:49:02;;;;;;;;;;;19.30;40.30;;;;;;8237762;28;19936;-50
2021/10/27 05:57:10;;;;;;;;;;;19.30;40.20;;;;;;8236842;28;20438;-49
2021/10/27 06:01:11;;;;;;;;;;;19.30;40.20;;;;;;8237420;28;19914;-50
2021/10/27 06:05:12;;;;;;;;;;;19.30;40.20;;;;;;8235917;28;19925;-49
2021/10/27 06:09:16;;;;;;;;;;;19.30;40.20;;;;;;8237418;28;19918;-50
2021/10/27 06:13:16;;;;;;;;;;;19.30;40.20;;;;;;8236989;28;19977;-50
2021/10/27 06:17:17;;;;;;;;;;;19.20;40.20;;;;;;8236078;28;19926;-50
2021/10/27 06:21:17;;;;;;;;;;;19.20;40.20;;;;;;8236495;28;20284;-50
2021/10/27 06:25:18;;;;;;;;;;;19.20;40.20;;;;;;8236522;28;19914;-52
2021/10/27 06:29:28;;;;;;;;;;;19.20;40.30;;;;;;8236036;28;20386;-52
2021/10/27 06:37:42;;;;;;;;;;;19.10;40.50;;;;;;8236186;28;19922;-52
2021/10/27 06:50:21;;;;;;;;;;;19.20;40.40;;;;;;8235748;28;20279;-51
2021/10/27 06:54:21;;;;;;;;;;;19.30;40.50;;;;;;8236302;28;20022;-53
2021/10/27 06:58:22;;;;;;;;;;;19.30;40.40;;;;;;8235414;28;19933;-50
2021/10/27 07:06:50;;;;;;;;;;;19.30;40.40;;;;;;8237536;28;19914;-50
2021/10/27 07:15:19;;;;;;;;;;;19.30;40.30;;;;;;8234538;28;19980;-52
2021/10/27 07:19:19;;;;;;;;;;;19.30;40.30;;;;;;8237915;28;19921;-51
2021/10/27 07:23:20;;;;;;;;;;;19.30;40.20;;;;;;8234077;28;19914;-49
2021/10/27 07:27:21;;;;;;;;;;;19.30;40.30;;;;;;8234645;28;19918;-49
2021/10/27 07:31:23;;;;;;;;;;;19.30;40.20;;;;;;8234651;28;19914;-51
2021/10/27 07:35:45;;;;;;;;;;;19.30;40.20;;;;;;8233838;28;19941;-50
2021/10/27 07:43:52;;;;;;;;;;;19.30;40.30;;;;;;8237219;28;19914;-53
2021/10/27 07:47:54;;;;;;;;;;;19.30;40.20;;;;;;8233572;28;19993;-49
2021/10/27 07:51:54;;;;;;;;;;;19.20;40.30;;;;;;8233999;28;19914;-50
2021/10/27 07:55:55;;;;;;;;;;;19.20;40.30;;;;;;8233608;28;20303;-50
2021/10/27 07:59:57;;;;;;;;;;;19.20;40.30;;;;;;8233662;28;20299;-51
2021/10/27 08:03:58;;;;;;;;;;;19.20;40.30;;;;;;8233747;28;19914;-51
2021/10/27 08:07:59;;;;;;;;;;;19.20;40.40;;;;;;8233612;28;20431;-50
2021/10/27 08:11:59;;;;;;;;;;;19.20;40.40;;;;;;8233033;28;19918;-50
2021/10/27 08:16:00;;;;;;;;;;;19.20;40.90;;;;;;8233392;28;19922;-51
2021/10/27 08:20:03;;;;;;;;;;;19.20;40.50;;;;;;8233607;28;19914;-50
2021/10/27 08:24:04;;;;;;;;;;;19.20;40.50;;;;;;8232913;28;19922;-53
2021/10/27 08:28:08;;;;;;;;;;;19.30;40.60;;;;;;8233715;28;20043;-51
2021/10/27 08:32:16;;;;;;;;;;;19.30;40.70;;;;;;8239558;28;19996;-48
2021/10/27 08:36:16;;;;;;;;;;;19.30;40.60;;;;;;8239973;28;19929;-50
2021/10/27 08:40:19;;;;;;;;;;;19.40;40.60;;;;;;8240204;28;20344;-50
2021/10/27 08:44:19;;;;;;;;;;;19.40;40.50;;;;;;8239364;28;20280;-51
2021/10/27 08:48:20;;;;;;;;;;;19.40;40.50;;;;;;8239452;28;19914;-51
2021/10/27 08:52:21;;;;;;;;;;;19.40;40.50;;;;;;8239347;28;19917;-53
2021/10/27 08:56:22;;;;;;;;;;;19.40;40.60;;;;;;8238696;28;19929;-50
2021/10/27 09:04:54;;;;;;;;;;;19.40;40.50;;;;;;8241775;28;19914;-52
2021/10/27 09:35:09;;;;;;;;;;;19.40;40.60;;;;;;8238210;28;19968;-53
2021/10/27 10:04:26;;;;;;;;;;;19.30;40.80;;;;;;8236479;28;19920;-51
2021/10/27 10:08:27;;;;;;;;;;;19.40;40.90;;;;;;8237402;28;19914;-50
2021/10/27 10:12:28;;;;;;;;;;;19.30;40.80;;;;;;8237054;28;19918;-53
2021/10/27 10:16:29;;;;;;;;;;;19.30;40.80;;;;;;8236731;28;21646;-51
2021/10/27 10:20:30;;;;;;;;;;;19.40;40.80;;;;;;8236493;28;19921;-51
2021/10/27 10:24:33;;;;;;;;;;;19.40;40.90;;;;;;8236605;28;19953;-50
2021/10/27 10:28:43;;;;;;;;;;;19.40;40.90;;;;;;8236565;28;20005;-52
2021/10/27 10:32:48;;;;;;;;;;;19.40;40.90;;;;;;8235825;28;20017;-53
2021/10/27 10:36:49;;;;;;;;;;;19.40;40.90;;;;;;8242215;28;19922;-50
2021/10/27 11:40:42;;;;;;;;;;;19.50;41.00;;;;;;8238673;28;19920;-51
2021/10/27 11:44:58;;;;;;;;;;;19.50;41.00;;;;;;8233890;28;20226;-51
2021/10/27 11:49:09;;;;;;;;;;;19.50;41.00;;;;;;8234055;28;19914;-52
2021/10/27 11:53:29;;;;;;;;;;;19.50;41.00;;;;;;8233711;28;19918;-51
2021/10/27 11:57:30;;;;;;;;;;;19.50;40.90;;;;;;8234318;28;19922;-51
2021/10/27 12:01:42;;;;;;;;;;;19.50;41.00;;;;;;8234048;28;19946;-53
2021/10/27 12:05:56;;;;;;;;;;;19.60;41.00;;;;;;8232613;28;20009;-52
2021/10/27 12:18:16;;;;;;;;;;;19.60;41.00;;;;;;8232758;28;19922;-51
2021/10/27 12:22:19;;;;;;;;;;;19.60;41.00;;;;;;8233545;28;19915;-52
2021/10/27 12:26:22;;;;;;;;;;;19.60;41.00;;;;;;8233238;28;19917;-51
2021/10/27 12:30:23;;;;;;;;;;;19.60;41.00;;;;;;8233107;28;19922;-51
2021/10/27 12:34:27;;;;;;;;;;;19.60;41.00;;;;;;8233221;28;19914;-53
2021/10/27 12:38:32;;;;;;;;;;;19.60;41.00;;;;;;8232633;28;19930;-51
2021/10/27 12:42:33;;;;;;;;;;;19.60;41.00;;;;;;8233347;28;19922;-52
2021/10/27 12:46:33;;;;;;;;;;;19.60;41.00;;;;;;8233303;28;19976;-52
2021/10/27 12:50:34;;;;;;;;;;;19.60;41.00;;;;;;8232508;28;19914;-54
2021/10/27 12:54:35;;;;;;;;;;;19.60;41.00;;;;;;8231879;28;19925;-54
2021/10/27 12:58:38;;;;;;;;;;;19.60;41.00;;;;;;8232794;28;20276;-51
2021/10/27 13:02:43;;;;;;;;;;;19.60;41.00;;;;;;8232429;28;19921;-54
2021/10/27 13:11:00;;;;;;;;;;;19.60;41.00;;;;;;8232244;28;19918;-52
2021/10/27 13:15:09;;;;;;;;;;;19.70;41.10;;;;;;8249036;28;20033;-51
2021/10/27 13:31:51;;;;;;;;;;;19.70;41.10;;;;;;8241303;28;19976;-52
2021/10/27 13:35:52;;;;;;;;;;;19.70;41.10;;;;;;8237534;28;19922;-52
2021/10/27 13:39:53;;;;;;;;;;;19.70;41.10;;;;;;8237784;28;20023;-53
2021/10/27 13:43:59;;;;;;;;;;;19.70;41.10;;;;;;8237922;28;19917;-50
2021/10/27 14:09:41;;;;;;;;;;;19.70;41.10;;;;;;8236744;28;19960;-51
2021/10/27 14:13:58;;;;;;;;;;;19.70;41.10;;;;;;8236923;28;19918;-51
2021/10/27 14:18:16;;;;;;;;;;;19.70;41.10;;;;;;8236332;28;20012;-53
2021/10/27 14:39:55;;;;;;;;;;;19.80;41.20;;;;;;8236085;28;19925;-52
2021/10/27 15:23:03;;;;;;;;;;;19.70;41.30;;;;;;8233590;28;19921;-52
2021/10/27 15:40:29;;;;;;;;;;;19.70;41.30;;;;;;8233828;28;20372;-52
2021/10/27 15:53:08;;;;;;;;;;;19.70;41.30;;;;;;8236691;28;19961;-49
2021/10/27 15:57:10;;;;;;;;;;;19.70;41.30;;;;;;8232813;28;19922;-53
2021/10/27 16:01:10;;;;;;;;;;;19.70;41.40;;;;;;8233345;28;19921;-50
2021/10/27 16:05:11;;;;;;;;;;;19.70;41.40;;;;;;8233328;28;19914;-53
2021/10/27 16:09:12;;;;;;;;;;;19.70;41.40;;;;;;8233536;28;19913;-53
2021/10/27 16:13:13;;;;;;;;;;;19.70;41.40;;;;;;8234398;28;20299;-51
2021/10/27 16:17:13;;;;;;;;;;;19.70;41.40;;;;;;8232961;28;19926;-52
2021/10/27 16:21:14;;;;;;;;;;;19.70;41.50;;;;;;8238700;28;19913;-50
2021/10/27 16:25:15;;;;;;;;;;;19.70;41.50;;;;;;8251604;28;20364;-52
2021/10/27 16:29:15;;;;;;;;;;;19.70;41.60;;;;;;8232039;28;19921;-51
2021/10/27 16:33:20;;;;;;;;;;;19.70;41.60;;;;;;8233087;28;20311;-53
2021/10/27 16:37:21;;;;;;;;;;;19.70;41.60;;;;;;8232841;28;20013;-58
2021/10/27 16:41:22;;;;;;;;;;;19.70;41.60;;;;;;8232407;28;19921;-50
2021/10/27 16:45:22;;;;;;;;;;;19.70;41.60;;;;;;8233148;28;19917;-51
2021/10/27 16:49:24;;;;;;;;;;;19.60;41.60;;;;;;8234080;28;19918;-53
2021/10/27 16:53:25;;;;;;;;;;;19.70;41.60;;;;;;8239348;28;20443;-51
2021/10/27 16:57:27;;;;;;;;;;;19.60;41.60;;;;;;8238825;28;20390;-52
2021/10/27 17:01:29;;;;;;;;;;;19.70;41.60;;;;;;8238785;28;19920;-51
2021/10/27 17:05:29;;;;;;;;;;;19.60;41.60;;;;;;8238457;28;19976;-52
2021/10/27 17:09:29;;;;;;;;;;;19.60;41.60;;;;;;8238509;28;19914;-50
2021/10/27 17:13:30;;;;;;;;;;;19.60;41.60;;;;;;8238537;28;20360;-51
2021/10/27 17:17:30;;;;;;;;;;;19.60;41.60;;;;;;8237695;28;19922;-51
2021/10/27 17:21:31;;;;;;;;;;;19.70;41.60;;;;;;8253341;28;20336;-51
2021/10/27 17:25:33;;;;;;;;;;;19.70;41.60;;;;;;8238287;28;19937;-52
2021/10/27 17:29:33;;;;;;;;;;;19.60;41.60;;;;;;8236994;28;20028;-54
2021/10/27 17:33:34;;;;;;;;;;;19.70;41.60;;;;;;8238209;28;20021;-53
2021/10/27 17:37:34;;;;;;;;;;;19.60;41.60;;;;;;8237832;28;20276;-53
2021/10/27 17:41:36;;;;;;;;;;;19.60;41.60;;;;;;8236896;28;19922;-53
2021/10/27 17:45:39;;;;;;;;;;;19.60;41.60;;;;;;8237759;28;19925;-52
2021/10/27 18:02:07;;;;;;;;;;;19.60;41.50;;;;;;8238851;28;20335;-52
2021/10/27 18:06:09;;;;;;;;;;;19.60;41.60;;;;;;8236748;28;19914;-51
2021/10/27 18:10:13;;;;;;;;;;;19.60;41.60;;;;;;8237131;28;19921;-52
2021/10/27 18:14:18;;;;;;;;;;;19.60;41.50;;;;;;8236130;28;20001;-50
2021/10/27 18:18:29;;;;;;;;;;;19.60;41.60;;;;;;8236659;28;20299;-52
2021/10/27 18:43:57;;;;;;;;;;;19.60;41.60;;;;;;8238546;28;19914;-50
2021/10/27 18:47:58;;;;;;;;;;;19.60;41.60;;;;;;8235338;28;19914;-51
2021/10/27 19:12:41;;;;;;;;;;;19.60;41.50;;;;;;8239968;28;19979;-53
2021/10/27 19:16:43;;;;;;;;;;;19.60;41.50;;;;;;8238480;28;19921;-50
2021/10/27 19:20:44;;;;;;;;;;;19.60;41.50;;;;;;8233073;28;20012;-51
2021/10/27 19:24:59;;;;;;;;;;;19.60;41.50;;;;;;8236295;28;19918;-53
2021/10/27 19:29:36;;;;;;;;;;;19.60;41.50;;;;;;8239142;28;20363;-52
2021/10/27 19:33:52;;;;;;;;;;;19.50;41.40;;;;;;8235997;28;20286;-53
2021/10/27 20:08:18;;;;;;;;;;;19.60;41.40;;;;;;8236674;28;19921;-53
2021/10/27 20:55:06;;;;;;;;;;;19.50;41.20;;;;;;8245058;28;19918;-50
2021/10/27 21:16:04;;;;;;;;;;;19.50;41.10;;;;;;8249225;28;19972;-51
2021/10/27 21:20:06;;;;;;;;;;;19.50;41.10;;;;;;8243398;28;19942;-52
2021/10/27 21:24:06;;;;;;;;;;;19.50;41.10;;;;;;8242931;28;20271;-49
2021/10/27 21:28:25;;;;;;;;;;;19.50;41.00;;;;;;8243168;28;19920;-49
2021/10/27 21:32:44;;;;;;;;;;;19.50;41.00;;;;;;8241462;28;20340;-53
2021/10/27 21:42:26;;;;;;;;;;;19.50;41.00;;;;;;8246818;28;19933;-51
2021/10/27 21:45:27;;;;;;;;;;;19.50;41.00;;;;;;8237930;28;19920;-49
2021/10/27 21:49:27;;;;;;;;;;;19.50;41.00;;;;;;8237715;28;19914;-51
2021/10/27 21:53:28;;;;;;;;;;;19.50;41.00;;;;;;8237445;28;19925;-49
2021/10/27 21:57:30;;;;;;;;;;;19.50;41.00;;;;;;8237508;28;19929;-50
2021/10/27 22:01:31;;;;;;;;;;;19.40;41.00;;;;;;8236667;28;20397;-51
2021/10/27 22:05:31;;;;;;;;;;;19.50;41.00;;;;;;8236148;28;19914;-53
2021/10/27 22:09:32;;;;;;;;;;;19.40;41.00;;;;;;8237041;28;20369;-52
2021/10/27 22:13:32;;;;;;;;;;;19.40;41.00;;;;;;8236853;28;19960;-53
2021/10/27 22:17:33;;;;;;;;;;;19.40;41.00;;;;;;8236359;28;19968;-49
2021/10/27 22:21:34;;;;;;;;;;;19.40;41.00;;;;;;8236718;28;19918;-50
2021/10/27 22:25:34;;;;;;;;;;;19.40;41.00;;;;;;8237063;28;19914;-50
2021/10/27 22:29:35;;;;;;;;;;;19.40;41.00;;;;;;8236057;28;19918;-53
2021/10/27 22:33:36;;;;;;;;;;;19.40;41.00;;;;;;8236413;28;19921;-50
2021/10/27 22:37:37;;;;;;;;;;;19.40;41.00;;;;;;8236133;28;20376;-53
2021/10/27 22:41:41;;;;;;;;;;;19.40;41.00;;;;;;8235715;28;19962;-53
2021/10/27 22:45:41;;;;;;;;;;;19.40;41.00;;;;;;8236484;28;19910;-52
2021/10/27 22:49:42;;;;;;;;;;;19.40;41.00;;;;;;8235272;28;19945;-53
2021/10/27 22:53:43;;;;;;;;;;;19.30;41.00;;;;;;8235378;28;19918;-49
2021/10/27 22:57:43;;;;;;;;;;;19.30;41.00;;;;;;8235647;28;20295;-49
2021/10/27 23:01:49;;;;;;;;;;;19.30;41.00;;;;;;8235592;28;20414;-52
2021/10/27 23:05:59;;;;;;;;;;;19.30;41.00;;;;;;8250349;28;20001;-50
2021/10/27 23:10:15;;;;;;;;;;;19.30;41.00;;;;;;8236421;28;20009;-51
2021/10/27 23:14:53;;;;;;;;;;;19.30;41.00;;;;;;8237099;28;19914;-49
2021/10/27 23:44:36;;;;;;;;;;;19.30;41.00;;;;;;8233686;28;19918;-49
2021/10/27 23:48:39;;;;;;;;;;;19.30;41.00;;;;;;8234389;28;19920;-50
2021/10/27 23:57:00;;;;;;;;;;;19.30;41.00;;;;;;8233674;28;19922;-52
